createdAt,value
2018-06-24T00:01:12.955Z,16.23
2018-06-24T00:03:42.126Z,15.67
2018-06-24T00:06:11.296Z,15.43
2018-06-24T00:08:40.467Z,17.77
2018-06-24T00:11:10.029Z,19.90
2018-06-24T00:13:39.289Z,17.27
2018-06-24T00:16:08.669Z,20.87
2018-06-24T00:18:37.846Z,20.40
2018-06-24T00:21:06.970Z,12.10
2018-06-24T00:23:36.133Z,13.57
2018-06-24T00:26:05.370Z,13.43
2018-06-24T00:28:34.550Z,13.80
2018-06-24T00:31:03.691Z,13.23
2018-06-24T00:33:32.812Z,17.13
2018-06-24T00:36:02.003Z,11.63
2018-06-24T00:38:31.097Z,15.87
2018-06-24T00:41:00.309Z,18.33
2018-06-24T00:43:29.494Z,14.67
2018-06-24T00:45:58.597Z,13.33
2018-06-24T00:48:27.778Z,12.27
2018-06-24T00:50:56.938Z,13.37
2018-06-24T00:53:26.129Z,15.07
2018-06-24T00:55:55.275Z,11.50
2018-06-24T00:58:24.401Z,23.90
2018-06-24T01:00:53.599Z,11.83
2018-06-24T01:03:22.798Z,12.57
2018-06-24T01:05:51.931Z,13.40
2018-06-24T01:08:21.088Z,14.80
2018-06-24T01:10:50.319Z,13.43
2018-06-24T01:13:19.501Z,13.33
2018-06-24T01:15:48.626Z,18.60
2018-06-24T01:18:17.780Z,13.97
2018-06-24T01:20:46.954Z,11.60
2018-06-24T01:23:16.076Z,19.23
2018-06-24T01:25:45.244Z,12.83
2018-06-24T01:28:14.445Z,18.83
2018-06-24T01:30:43.654Z,11.33
2018-06-24T01:33:12.810Z,14.80
2018-06-24T01:35:41.962Z,14.00
2018-06-24T01:38:11.094Z,12.83
2018-06-24T01:40:40.230Z,12.97
2018-06-24T01:43:09.378Z,20.60
2018-06-24T01:45:38.538Z,19.27
2018-06-24T01:48:07.695Z,14.97
2018-06-24T01:50:36.806Z,19.27
2018-06-24T01:53:05.880Z,13.03
2018-06-24T01:55:35.036Z,12.60
2018-06-24T01:58:04.185Z,13.83
2018-06-24T02:00:33.337Z,11.53
2018-06-24T02:03:02.493Z,13.17
2018-06-24T02:05:31.606Z,11.60
2018-06-24T02:08:00.685Z,12.70
2018-06-24T02:10:29.849Z,14.80
2018-06-24T02:12:58.952Z,11.00
2018-06-24T02:15:28.125Z,14.80
2018-06-24T02:17:57.221Z,14.00
2018-06-24T02:20:26.419Z,12.70
2018-06-24T02:22:55.629Z,12.10
2018-06-24T02:25:24.785Z,16.23
2018-06-24T02:27:53.892Z,21.23
2018-06-24T02:30:23.128Z,16.70
2018-06-24T02:32:52.194Z,13.03
2018-06-24T02:35:21.329Z,13.90
2018-06-24T02:37:50.520Z,14.30
2018-06-24T02:40:19.681Z,14.27
2018-06-24T02:42:48.842Z,16.70
2018-06-24T02:45:17.971Z,12.00
2018-06-24T02:47:47.172Z,14.37
2018-06-24T02:50:16.496Z,16.73
2018-06-24T02:52:45.613Z,10.87
2018-06-24T02:55:14.785Z,14.00
2018-06-24T02:57:43.946Z,15.97
2018-06-24T03:00:13.164Z,16.40
2018-06-24T03:02:42.317Z,13.63
2018-06-24T03:05:11.497Z,13.13
2018-06-24T03:07:40.724Z,12.43
2018-06-24T03:10:09.914Z,13.47
2018-06-24T03:12:39.026Z,14.90
2018-06-24T03:15:08.149Z,19.73
2018-06-24T03:17:37.347Z,16.90
2018-06-24T03:20:06.558Z,13.47
2018-06-24T03:22:35.644Z,14.73
2018-06-24T03:25:04.770Z,14.90
2018-06-24T03:27:33.959Z,19.20
2018-06-24T03:30:03.147Z,17.47
2018-06-24T03:32:32.293Z,21.30
2018-06-24T03:35:01.413Z,19.70
2018-06-24T03:37:30.577Z,19.07
2018-06-24T03:39:59.749Z,24.73
2018-06-24T03:42:28.858Z,20.33
2018-06-24T03:44:57.995Z,24.20
2018-06-24T03:47:27.265Z,15.00
2018-06-24T03:49:56.380Z,14.90
2018-06-24T03:52:25.543Z,15.67
2018-06-24T03:54:54.646Z,18.57
2018-06-24T03:57:23.800Z,20.37
2018-06-24T03:59:52.960Z,15.40
2018-06-24T04:02:22.155Z,26.43
2018-06-24T04:04:51.373Z,20.10
2018-06-24T04:07:20.383Z,29.23
2018-06-24T04:09:49.560Z,22.00
2018-06-24T04:12:18.626Z,24.97
2018-06-24T04:14:48.516Z,22.00
2018-06-24T04:17:17.645Z,26.97
2018-06-24T04:19:46.723Z,19.23
2018-06-24T04:22:15.928Z,22.53
2018-06-24T04:24:45.128Z,21.23
2018-06-24T04:27:14.253Z,24.30
2018-06-24T04:29:43.358Z,23.93
2018-06-24T04:32:12.487Z,22.50
2018-06-24T04:34:41.641Z,23.33
2018-06-24T04:37:10.824Z,16.53
2018-06-24T04:39:39.913Z,13.70
2018-06-24T04:42:09.144Z,19.83
2018-06-24T04:44:38.248Z,17.57
2018-06-24T04:47:07.449Z,19.53
2018-06-24T04:49:36.901Z,17.80
2018-06-24T04:52:06.107Z,27.47
2018-06-24T04:54:35.250Z,16.77
2018-06-24T04:57:04.583Z,16.70
2018-06-24T04:59:33.729Z,19.73
2018-06-24T05:02:02.918Z,19.50
2018-06-24T05:04:32.105Z,23.10
2018-06-24T05:07:01.225Z,21.93
2018-06-24T05:09:30.361Z,21.60
2018-06-24T05:11:59.514Z,22.67
2018-06-24T05:14:28.716Z,24.27
2018-06-24T05:16:57.857Z,18.63
2018-06-24T05:19:26.988Z,23.03
2018-06-24T05:21:56.146Z,31.87
2018-06-24T05:24:25.273Z,26.33
2018-06-24T05:26:54.402Z,24.43
2018-06-24T05:29:23.541Z,28.60
2018-06-24T05:31:52.757Z,22.00
2018-06-24T05:34:22.830Z,22.30
2018-06-24T05:36:51.981Z,24.43
2018-06-24T05:39:21.153Z,29.50
2018-06-24T05:41:50.339Z,27.70
2018-06-24T05:44:19.475Z,30.53
2018-06-24T05:46:48.642Z,23.20
2018-06-24T05:49:17.776Z,22.63
2018-06-24T05:51:46.934Z,27.07
2018-06-24T05:54:16.128Z,24.70
2018-06-24T05:56:45.278Z,25.73
2018-06-24T05:59:14.377Z,28.33
2018-06-24T06:01:43.576Z,23.23
2018-06-24T06:04:12.674Z,25.40
2018-06-24T06:06:41.552Z,30.23
2018-06-24T06:09:12.148Z,18.27
2018-06-24T06:11:41.333Z,27.87
2018-06-24T06:14:10.486Z,16.60
2018-06-24T06:16:39.577Z,22.57
2018-06-24T06:19:08.749Z,17.27
2018-06-24T06:21:37.961Z,22.00
2018-06-24T06:24:07.261Z,25.63
2018-06-24T06:26:36.456Z,16.83
2018-06-24T06:29:05.562Z,27.30
2018-06-24T06:31:34.712Z,18.10
2018-06-24T06:34:03.822Z,24.97
2018-06-24T06:36:32.997Z,20.27
2018-06-24T06:39:02.194Z,19.90
2018-06-24T06:41:31.314Z,19.27
2018-06-24T06:44:00.479Z,19.33
2018-06-24T06:46:29.657Z,15.93
2018-06-24T06:48:58.832Z,15.57
2018-06-24T06:51:27.899Z,21.83
2018-06-24T06:53:57.099Z,21.90
2018-06-24T06:56:26.221Z,21.70
2018-06-24T06:58:55.357Z,21.33
2018-06-24T07:01:24.584Z,22.53
2018-06-24T07:03:53.881Z,24.27
2018-06-24T07:06:23.383Z,18.13
2018-06-24T07:08:52.552Z,16.70
2018-06-24T07:11:21.798Z,16.43
2018-06-24T07:13:50.961Z,13.50
2018-06-24T07:16:20.057Z,12.97
2018-06-24T07:18:49.199Z,19.17
2018-06-24T07:21:18.360Z,13.70
2018-06-24T07:23:47.507Z,20.13
2018-06-24T07:26:16.642Z,16.40
2018-06-24T07:28:45.766Z,14.10
2018-06-24T07:31:14.962Z,17.07
2018-06-24T07:33:44.136Z,18.40
2018-06-24T07:36:13.227Z,11.43
2018-06-24T07:38:42.369Z,15.77
2018-06-24T07:41:11.543Z,13.93
2018-06-24T07:43:40.655Z,13.57
2018-06-24T07:46:09.813Z,15.70
2018-06-24T07:48:39.140Z,15.13
2018-06-24T07:51:08.474Z,17.30
2018-06-24T07:53:37.605Z,11.37
2018-06-24T07:56:06.773Z,12.97
2018-06-24T07:58:35.900Z,13.70
2018-06-24T08:01:05.017Z,22.00
2018-06-24T08:03:34.140Z,13.57
2018-06-24T08:06:03.321Z,11.30
2018-06-24T08:08:32.459Z,10.90
2018-06-24T08:11:01.659Z,11.63
2018-06-24T08:13:30.911Z,11.27
2018-06-24T08:16:00.103Z,11.10
2018-06-24T08:18:29.362Z,15.87
2018-06-24T08:20:58.527Z,14.17
2018-06-24T08:23:27.673Z,15.87
2018-06-24T08:25:56.846Z,12.20
2018-06-24T08:28:25.956Z,11.93
2018-06-24T08:30:55.075Z,12.57
2018-06-24T08:33:24.226Z,15.23
2018-06-24T08:35:53.361Z,13.80
2018-06-24T08:38:22.613Z,12.60
2018-06-24T08:40:51.745Z,14.80
2018-06-24T08:43:20.900Z,11.40
2018-06-24T08:45:50.019Z,13.60
2018-06-24T08:48:19.185Z,11.00
2018-06-24T08:50:48.343Z,16.97
2018-06-24T08:53:17.518Z,12.17
2018-06-24T08:55:46.691Z,14.00
2018-06-24T08:58:16.067Z,10.30
2018-06-24T09:00:45.314Z,9.93
2018-06-24T09:03:14.466Z,12.20
2018-06-24T09:05:43.627Z,12.10
2018-06-24T09:08:12.806Z,11.50
2018-06-24T09:10:41.919Z,11.23
2018-06-24T09:13:11.085Z,13.27
2018-06-24T09:15:40.223Z,13.80
2018-06-24T09:18:09.322Z,11.03
2018-06-24T09:20:38.478Z,11.50
2018-06-24T09:23:07.683Z,10.63
2018-06-24T09:25:37.018Z,13.33
2018-06-24T09:28:06.509Z,13.53
2018-06-24T09:30:35.788Z,9.90
2018-06-24T09:33:04.942Z,10.33
2018-06-24T09:35:34.066Z,12.03
2018-06-24T09:38:03.265Z,10.60
2018-06-24T09:40:32.395Z,12.80
2018-06-24T09:43:01.544Z,12.53
2018-06-24T09:45:30.730Z,13.50
2018-06-24T09:47:59.898Z,13.00
2018-06-24T09:50:29.082Z,9.87
2018-06-24T09:52:58.242Z,14.60
2018-06-24T09:55:27.433Z,8.33
2018-06-24T09:57:56.621Z,10.43
2018-06-24T10:00:25.802Z,11.97
2018-06-24T10:02:55.017Z,8.80
2018-06-24T10:05:24.390Z,9.60
2018-06-24T10:07:53.539Z,10.07
2018-06-24T10:10:22.669Z,11.00
2018-06-24T10:12:51.837Z,8.50
2018-06-24T10:15:21.019Z,10.83
2018-06-24T10:17:50.237Z,8.73
2018-06-24T10:20:19.381Z,8.27
2018-06-24T10:22:48.553Z,9.57
2018-06-24T10:25:17.648Z,10.20
2018-06-24T10:27:46.816Z,9.30
2018-06-24T10:30:16.007Z,10.57
2018-06-24T10:32:45.129Z,10.27
2018-06-24T10:35:14.255Z,10.93
2018-06-24T10:37:43.348Z,10.20
2018-06-24T10:40:12.475Z,10.60
2018-06-24T10:42:41.679Z,9.37
2018-06-24T10:45:10.858Z,10.00
2018-06-24T10:47:39.986Z,10.23
2018-06-24T10:50:09.152Z,8.53
2018-06-24T10:52:38.317Z,8.67
2018-06-24T10:55:07.422Z,9.20
2018-06-24T10:57:36.642Z,9.07
2018-06-24T11:00:05.845Z,8.93
2018-06-24T11:02:35.025Z,9.17
2018-06-24T11:05:04.281Z,12.97
2018-06-24T11:07:33.444Z,14.63
2018-06-24T11:10:02.600Z,8.83
2018-06-24T11:12:31.770Z,9.53
2018-06-24T11:15:00.917Z,9.47
2018-06-24T11:17:30.019Z,11.37
2018-06-24T11:19:59.223Z,7.80
2018-06-24T11:22:28.398Z,8.57
2018-06-24T11:24:57.518Z,9.40
2018-06-24T11:27:26.677Z,10.40
2018-06-24T11:29:55.821Z,8.70
2018-06-24T11:32:24.953Z,9.67
2018-06-24T11:34:54.105Z,8.13
2018-06-24T11:37:23.280Z,10.53
2018-06-24T11:39:52.377Z,9.77
2018-06-24T11:42:21.511Z,10.30
2018-06-24T11:44:50.683Z,8.80
2018-06-24T11:47:19.829Z,8.57
2018-06-24T11:49:49.165Z,11.90
2018-06-24T11:52:18.449Z,7.60
2018-06-24T11:54:47.610Z,7.03
2018-06-24T11:57:16.773Z,8.43
2018-06-24T11:59:45.874Z,7.60
2018-06-24T12:02:14.985Z,10.33
2018-06-24T12:04:44.405Z,8.13
2018-06-24T12:07:13.605Z,10.60
2018-06-24T12:09:42.775Z,8.60
2018-06-24T12:12:11.914Z,8.47
2018-06-24T12:14:41.056Z,9.20
2018-06-24T12:17:10.227Z,10.77
2018-06-24T12:19:39.356Z,9.30
2018-06-24T12:22:08.485Z,8.60
2018-06-24T12:24:37.609Z,9.93
2018-06-24T12:27:06.752Z,9.20
2018-06-24T12:29:35.881Z,10.30
2018-06-24T12:32:05.061Z,8.00
2018-06-24T12:34:34.238Z,9.03
2018-06-24T12:37:03.438Z,9.87
2018-06-24T12:39:32.555Z,10.03
2018-06-24T12:42:01.811Z,9.97
2018-06-24T12:44:30.909Z,11.70
2018-06-24T12:47:00.117Z,10.20
2018-06-24T12:49:29.210Z,10.27
2018-06-24T12:51:58.381Z,11.23
2018-06-24T12:54:27.520Z,9.77
2018-06-24T12:56:56.670Z,12.03
2018-06-24T12:59:25.938Z,11.93
2018-06-24T13:01:55.057Z,11.83
2018-06-24T13:04:24.194Z,12.73
2018-06-24T13:06:53.316Z,12.27
2018-06-24T13:09:22.506Z,11.70
2018-06-24T13:11:51.646Z,8.10
2018-06-24T13:14:20.732Z,10.27
2018-06-24T13:16:49.892Z,11.17
2018-06-24T13:19:19.003Z,8.50
2018-06-24T13:21:48.175Z,14.10
2018-06-24T13:24:17.305Z,8.80
2018-06-24T13:26:46.488Z,8.00
2018-06-24T13:29:15.667Z,8.00
2018-06-24T13:31:44.780Z,9.73
2018-06-24T13:34:13.971Z,10.33
2018-06-24T13:36:43.123Z,8.33
2018-06-24T13:39:12.405Z,7.80
2018-06-24T13:41:41.539Z,9.33
2018-06-24T13:44:10.670Z,10.73
2018-06-24T13:46:39.776Z,8.93
2018-06-24T13:49:08.923Z,12.40
2018-06-24T13:51:38.109Z,9.90
2018-06-24T13:54:07.243Z,11.03
2018-06-24T13:56:36.495Z,12.57
2018-06-24T13:59:05.771Z,18.03
2018-06-24T14:01:34.923Z,8.50
2018-06-24T14:04:04.069Z,9.60
2018-06-24T14:06:33.146Z,9.07
2018-06-24T14:09:02.339Z,10.87
2018-06-24T14:11:31.481Z,8.87
2018-06-24T14:14:00.966Z,12.83
2018-06-24T14:16:30.163Z,11.63
2018-06-24T14:18:59.363Z,13.70
2018-06-24T14:21:28.507Z,10.43
2018-06-24T14:23:57.610Z,9.50
2018-06-24T14:26:26.744Z,9.07
2018-06-24T14:28:55.908Z,8.70
2018-06-24T14:31:25.062Z,11.80
2018-06-24T14:33:54.582Z,11.43
2018-06-24T14:36:23.743Z,8.40
2018-06-24T14:38:52.833Z,12.07
2018-06-24T14:41:21.956Z,8.83
2018-06-24T14:43:51.069Z,10.73
2018-06-24T14:46:20.213Z,9.87
2018-06-24T14:48:49.402Z,8.83
2018-06-24T14:51:18.541Z,11.60
2018-06-24T14:53:47.682Z,10.70
2018-06-24T14:56:16.844Z,10.67
2018-06-24T14:58:46.039Z,10.47
2018-06-24T15:01:15.190Z,11.03
2018-06-24T15:03:44.421Z,9.10
2018-06-24T15:06:13.542Z,15.57
2018-06-24T15:08:42.684Z,11.10
2018-06-24T15:11:11.854Z,9.77
2018-06-24T15:13:41.002Z,11.30
2018-06-24T15:16:10.194Z,13.57
2018-06-24T15:18:39.330Z,8.90
2018-06-24T15:21:08.489Z,11.77
2018-06-24T15:23:37.641Z,12.07
2018-06-24T15:26:06.819Z,13.37
2018-06-24T15:28:36.004Z,12.63
2018-06-24T15:31:05.180Z,11.77
2018-06-24T15:33:34.443Z,10.30
2018-06-24T15:36:03.643Z,10.53
2018-06-24T15:38:32.922Z,14.07
2018-06-24T15:41:02.074Z,10.57
2018-06-24T15:43:31.238Z,10.63
2018-06-24T15:46:00.406Z,13.17
2018-06-24T15:48:29.510Z,10.87
2018-06-24T15:50:58.690Z,10.93
2018-06-24T15:53:27.767Z,12.87
2018-06-24T15:55:56.944Z,11.43
2018-06-24T15:58:26.118Z,14.43
2018-06-24T16:00:55.281Z,17.07
2018-06-24T16:03:24.396Z,16.60
2018-06-24T16:05:53.558Z,17.63
2018-06-24T16:08:22.738Z,11.40
2018-06-24T16:10:51.838Z,17.80
2018-06-24T16:13:21.004Z,10.37
2018-06-24T16:15:50.197Z,13.07
2018-06-24T16:18:19.326Z,15.83
2018-06-24T16:20:48.596Z,13.70
2018-06-24T16:23:17.704Z,19.00
2018-06-24T16:25:46.830Z,15.17
2018-06-24T16:28:15.936Z,15.03
2018-06-24T16:30:45.071Z,11.83
2018-06-24T16:33:14.176Z,17.00
2018-06-24T16:35:43.267Z,14.73
2018-06-24T16:38:12.413Z,17.90
2018-06-24T16:40:41.557Z,23.93
2018-06-24T16:43:10.784Z,12.30
2018-06-24T16:45:39.950Z,11.50
2018-06-24T16:48:09.075Z,11.50
2018-06-24T16:50:38.242Z,13.20
2018-06-24T16:53:07.485Z,10.40
2018-06-24T16:55:36.624Z,12.50
2018-06-24T16:58:06.023Z,14.13
2018-06-24T17:00:35.149Z,12.50
2018-06-24T17:03:04.306Z,13.37
2018-06-24T17:05:33.411Z,17.13
2018-06-24T17:08:02.635Z,16.40
2018-06-24T17:10:31.823Z,16.27
2018-06-24T17:13:00.952Z,22.07
2018-06-24T17:15:30.104Z,13.63
2018-06-24T17:17:59.471Z,19.50
2018-06-24T17:20:28.568Z,12.27
2018-06-24T17:22:57.761Z,17.43
2018-06-24T17:25:26.923Z,17.53
2018-06-24T17:27:56.256Z,15.37
2018-06-24T17:30:25.427Z,19.23
2018-06-24T17:32:54.658Z,18.03
2018-06-24T17:35:23.779Z,19.03
2018-06-24T17:37:53.162Z,13.77
2018-06-24T17:40:22.402Z,11.90
2018-06-24T17:42:51.647Z,12.70
2018-06-24T17:45:20.810Z,16.93
2018-06-24T17:47:50.006Z,16.40
2018-06-24T17:50:19.182Z,16.77
2018-06-24T17:52:48.332Z,12.93
2018-06-24T17:55:17.491Z,18.40
2018-06-24T17:57:46.664Z,16.50
2018-06-24T18:00:15.856Z,16.73
2018-06-24T18:02:45.204Z,15.87
2018-06-24T18:05:14.502Z,11.93
2018-06-24T18:07:43.914Z,14.27
2018-06-24T18:10:13.114Z,12.90
2018-06-24T18:12:42.331Z,12.83
2018-06-24T18:15:11.583Z,13.73
2018-06-24T18:17:40.785Z,12.07
2018-06-24T18:20:09.967Z,15.83
2018-06-24T18:22:39.118Z,11.50
2018-06-24T18:25:08.223Z,15.20
2018-06-24T18:27:37.395Z,10.90
2018-06-24T18:30:06.942Z,10.70
2018-06-24T18:32:36.144Z,11.37
2018-06-24T18:35:05.320Z,12.43
2018-06-24T18:37:34.557Z,10.97
2018-06-24T18:40:03.816Z,12.10
2018-06-24T18:42:32.983Z,11.13
2018-06-24T18:45:02.158Z,12.83
2018-06-24T18:47:31.323Z,15.57
2018-06-24T18:50:00.499Z,13.83
2018-06-24T18:52:29.679Z,13.83
2018-06-24T18:54:58.884Z,10.47
2018-06-24T18:57:28.126Z,12.23
2018-06-24T18:59:57.332Z,13.03
2018-06-24T19:02:26.578Z,10.90
2018-06-24T19:04:55.791Z,9.87
2018-06-24T19:07:25.015Z,10.83
2018-06-24T19:09:54.248Z,10.90
2018-06-24T19:12:23.320Z,12.40
2018-06-24T19:14:52.549Z,10.87
2018-06-24T19:17:21.725Z,10.00
2018-06-24T19:19:50.931Z,9.40
2018-06-24T19:22:20.192Z,11.40
2018-06-24T19:24:49.402Z,10.83
2018-06-24T19:27:18.628Z,10.43
2018-06-24T19:29:47.874Z,11.70
2018-06-24T19:32:17.112Z,9.37
2018-06-24T19:34:46.381Z,9.80
2018-06-24T19:37:15.586Z,9.63
2018-06-24T19:39:44.857Z,11.17
2018-06-24T19:42:14.089Z,14.10
2018-06-24T19:44:43.265Z,10.17
2018-06-24T19:47:12.491Z,10.00
2018-06-24T19:49:41.679Z,9.20
2018-06-24T19:52:10.939Z,10.67
2018-06-24T19:54:40.163Z,13.00
2018-06-24T19:57:09.290Z,14.07
2018-06-24T19:59:38.524Z,10.20
2018-06-24T20:02:07.772Z,11.40
2018-06-24T20:04:36.924Z,10.70
2018-06-24T20:07:06.148Z,14.20
2018-06-24T20:09:35.311Z,10.97
2018-06-24T20:12:04.520Z,11.27
2018-06-24T20:14:33.747Z,10.37
2018-06-24T20:17:02.961Z,14.60
2018-06-24T20:19:32.148Z,14.80
2018-06-24T20:22:01.612Z,10.30
2018-06-24T20:24:30.587Z,57.93
2018-06-24T20:26:59.791Z,12.23
2018-06-24T20:29:29.012Z,12.00
2018-06-24T20:31:58.186Z,11.43
2018-06-24T20:34:27.375Z,15.10
2018-06-24T20:36:56.583Z,12.30
2018-06-24T20:39:25.757Z,10.93
2018-06-24T20:41:55.587Z,13.33
2018-06-24T20:44:24.998Z,11.43
2018-06-24T20:46:54.191Z,10.80
2018-06-24T20:49:23.362Z,9.80
2018-06-24T20:51:52.465Z,14.50
2018-06-24T20:54:21.623Z,11.33
2018-06-24T20:56:50.790Z,13.07
2018-06-24T20:59:19.890Z,11.87
2018-06-24T21:01:49.017Z,11.60
2018-06-24T21:04:18.167Z,10.53
2018-06-24T21:06:47.543Z,15.60
2018-06-24T21:09:16.684Z,13.13
2018-06-24T21:11:45.873Z,11.53
2018-06-24T21:14:15.061Z,14.10
2018-06-24T21:16:44.217Z,11.40
2018-06-24T21:19:13.296Z,13.50
2018-06-24T21:21:42.478Z,15.73
2018-06-24T21:24:11.671Z,12.23
2018-06-24T21:26:40.837Z,12.90
2018-06-24T21:29:09.973Z,12.33
2018-06-24T21:31:39.101Z,17.93
2018-06-24T21:34:08.274Z,15.23
2018-06-24T21:36:37.393Z,15.93
2018-06-24T21:39:09.252Z,11.20
2018-06-24T21:41:38.369Z,17.70
2018-06-24T21:44:07.511Z,15.83
2018-06-24T21:46:36.628Z,14.63
2018-06-24T21:49:05.815Z,14.40
2018-06-24T21:51:34.961Z,13.40
2018-06-24T21:54:04.102Z,15.73
2018-06-24T21:56:33.277Z,14.10
2018-06-24T21:59:02.423Z,11.77
2018-06-24T22:01:31.634Z,14.47
2018-06-24T22:04:00.842Z,14.03
2018-06-24T22:06:29.953Z,14.07
2018-06-24T22:08:59.167Z,14.00
2018-06-24T22:11:28.278Z,13.87
2018-06-24T22:13:57.410Z,15.77
2018-06-24T22:16:26.505Z,16.70
2018-06-24T22:18:55.653Z,13.73
2018-06-24T22:21:24.794Z,11.80
2018-06-24T22:23:53.917Z,15.57
2018-06-24T22:26:23.090Z,14.90
2018-06-24T22:28:52.196Z,16.67
2018-06-24T22:31:21.420Z,19.00
2018-06-24T22:33:50.571Z,18.07
2018-06-24T22:36:19.697Z,21.87
2018-06-24T22:38:48.933Z,13.37
2018-06-24T22:41:18.095Z,13.80
2018-06-24T22:43:47.259Z,14.27
2018-06-24T22:46:16.419Z,15.13
2018-06-24T22:48:45.556Z,19.90
2018-06-24T22:51:14.763Z,18.17
2018-06-24T22:53:43.988Z,14.63
2018-06-24T22:56:13.165Z,13.53
2018-06-24T22:58:43.101Z,14.53
2018-06-24T23:01:12.266Z,15.13
2018-06-24T23:03:41.445Z,15.00
2018-06-24T23:06:10.582Z,12.90
2018-06-24T23:08:39.771Z,15.63
2018-06-24T23:11:08.933Z,15.87
2018-06-24T23:13:38.055Z,18.47
2018-06-24T23:16:07.237Z,13.60
2018-06-24T23:18:36.410Z,17.77
2018-06-24T23:21:05.717Z,16.00
2018-06-24T23:23:34.858Z,12.87
2018-06-24T23:26:04.005Z,18.40
2018-06-24T23:28:33.132Z,14.63
2018-06-24T23:31:02.292Z,15.50
2018-06-24T23:33:31.410Z,15.27
2018-06-24T23:36:00.554Z,15.40
2018-06-24T23:38:29.689Z,14.70
2018-06-24T23:40:58.812Z,16.00
2018-06-24T23:43:27.970Z,15.83
2018-06-24T23:45:57.067Z,15.53
2018-06-24T23:48:26.233Z,18.93
2018-06-24T23:50:55.442Z,18.10
2018-06-24T23:53:24.619Z,14.37
2018-06-24T23:55:53.724Z,16.13
2018-06-24T23:58:22.862Z,14.80
